createdAt,value
2018-09-19T00:01:44.007Z,12.60
2018-09-19T00:04:15.275Z,15.10
2018-09-19T00:06:46.946Z,15.27
2018-09-19T00:09:15.757Z,16.20
2018-09-19T00:11:45.779Z,14.25
2018-09-19T00:14:16.419Z,12.80
2018-09-19T00:16:46.980Z,11.95
2018-09-19T00:19:18.463Z,11.27
2018-09-19T00:21:47.096Z,8.98
2018-09-19T00:24:17.272Z,12.63
2018-09-19T00:26:45.899Z,11.18
2018-09-19T00:29:16.295Z,13.85
2018-09-19T00:31:44.982Z,14.65
2018-09-19T00:34:15.605Z,17.12
2018-09-19T00:36:45.924Z,15.20
2018-09-19T00:39:17.578Z,16.08
2018-09-19T00:41:47.976Z,12.65
2018-09-19T00:44:18.080Z,11.30
2018-09-19T00:46:46.705Z,15.18
2018-09-19T00:49:18.509Z,12.50
2018-09-19T00:51:50.077Z,13.90
2018-09-19T00:54:18.801Z,17.83
2018-09-19T00:56:49.665Z,14.05
2018-09-19T00:59:20.677Z,15.20
2018-09-19T01:01:52.290Z,16.70
2018-09-19T01:04:22.485Z,16.45
2018-09-19T01:06:51.069Z,15.93
2018-09-19T01:09:21.083Z,14.75
2018-09-19T01:11:52.683Z,10.68
2018-09-19T01:14:22.879Z,16.37
2018-09-19T01:16:52.940Z,24.08
2018-09-19T01:19:23.075Z,14.35
2018-09-19T01:21:53.626Z,14.95
2018-09-19T01:24:25.535Z,18.05
2018-09-19T01:26:53.768Z,10.65
2018-09-19T01:29:23.863Z,11.30
2018-09-19T01:31:52.465Z,18.45
2018-09-19T01:34:22.503Z,14.05
2018-09-19T01:36:54.305Z,9.90
2018-09-19T01:39:24.664Z,13.23
2018-09-19T01:41:54.848Z,14.65
2018-09-19T01:44:24.940Z,13.55
2018-09-19T01:46:53.839Z,13.50
2018-09-19T01:49:25.472Z,19.02
2018-09-19T01:51:58.293Z,15.13
2018-09-19T01:54:28.431Z,14.93
2018-09-19T01:56:58.747Z,11.23
2018-09-19T01:59:31.257Z,14.18
2018-09-19T02:02:03.123Z,12.05
2018-09-19T02:04:33.204Z,18.42
2018-09-19T02:07:03.375Z,12.25
2018-09-19T02:09:33.495Z,11.50
2018-09-19T02:12:05.212Z,10.77
2018-09-19T02:14:36.965Z,12.80
2018-09-19T02:17:05.631Z,10.50
2018-09-19T02:19:35.922Z,14.20
2018-09-19T02:22:07.677Z,16.85
2018-09-19T02:24:37.785Z,17.77
2018-09-19T02:27:06.393Z,12.50
2018-09-19T02:29:39.021Z,18.48
2018-09-19T02:32:07.631Z,13.02
2018-09-19T02:34:39.493Z,19.70
2018-09-19T02:37:09.809Z,14.32
2018-09-19T02:39:38.518Z,13.70
2018-09-19T02:42:08.944Z,11.80
2018-09-19T02:44:38.987Z,17.62
2018-09-19T02:47:09.067Z,13.90
2018-09-19T02:49:37.869Z,15.68
2018-09-19T02:52:08.120Z,13.20
2018-09-19T02:54:36.766Z,13.73
2018-09-19T02:57:08.359Z,14.57
2018-09-19T02:59:39.444Z,14.07
2018-09-19T03:02:08.964Z,15.60
2018-09-19T03:04:39.230Z,18.83
2018-09-19T03:07:08.200Z,15.13
2018-09-19T03:12:11.783Z,13.48
2018-09-19T03:14:42.120Z,12.55
2018-09-19T03:17:12.314Z,17.98
2018-09-19T03:19:42.408Z,19.10
2018-09-19T03:22:11.052Z,15.82
2018-09-19T03:24:39.602Z,17.83
2018-09-19T03:27:09.749Z,17.60
2018-09-19T03:29:38.379Z,13.18
2018-09-19T03:32:08.866Z,14.40
2018-09-19T03:34:38.965Z,14.93
2018-09-19T03:37:10.641Z,19.30
2018-09-19T03:39:42.301Z,13.77
2018-09-19T03:42:12.402Z,15.93
2018-09-19T03:44:42.537Z,18.27
2018-09-19T03:47:14.038Z,15.68
2018-09-19T03:49:44.129Z,21.90
2018-09-19T03:52:14.534Z,17.08
2018-09-19T03:54:43.113Z,18.33
2018-09-19T03:57:13.439Z,20.48
2018-09-19T03:59:42.037Z,14.95
2018-09-19T04:02:12.358Z,18.35
2018-09-19T04:04:44.011Z,19.15
2018-09-19T04:07:14.124Z,23.38
2018-09-19T04:09:44.236Z,18.15
2018-09-19T04:12:14.306Z,15.02
2018-09-19T04:14:46.165Z,15.65
2018-09-19T04:17:14.773Z,14.95
2018-09-19T04:19:44.885Z,17.23
2018-09-19T04:22:15.098Z,20.62
2018-09-19T04:24:45.161Z,16.15
2018-09-19T04:27:15.219Z,20.45
2018-09-19T04:29:45.939Z,17.62
2018-09-19T04:32:16.031Z,17.98
2018-09-19T04:34:46.164Z,16.70
2018-09-19T04:37:17.912Z,14.65
2018-09-19T04:39:46.465Z,17.62
2018-09-19T04:42:16.527Z,19.17
2018-09-19T04:44:45.704Z,15.85
2018-09-19T04:47:14.393Z,21.85
2018-09-19T04:49:45.930Z,19.48
2018-09-19T04:52:16.085Z,15.07
2018-09-19T04:54:44.898Z,29.75
2018-09-19T04:57:15.027Z,24.45
2018-09-19T04:59:46.742Z,16.67
2018-09-19T05:02:18.501Z,18.77
2018-09-19T05:04:48.560Z,17.77
2018-09-19T05:07:19.241Z,20.35
2018-09-19T05:09:49.495Z,17.80
2018-09-19T05:12:21.203Z,24.87
2018-09-19T05:14:51.408Z,21.45
2018-09-19T05:17:22.067Z,20.50
2018-09-19T05:19:52.329Z,20.10
2018-09-19T05:22:23.218Z,23.80
2018-09-19T05:24:51.903Z,18.37
2018-09-19T05:27:22.000Z,26.73
2018-09-19T05:29:53.723Z,15.63
2018-09-19T05:32:25.269Z,22.13
2018-09-19T05:34:55.351Z,15.95
2018-09-19T05:37:25.617Z,19.12
2018-09-19T05:39:55.821Z,18.95
2018-09-19T05:42:26.140Z,22.55
2018-09-19T05:44:55.462Z,22.42
2018-09-19T05:47:23.228Z,25.08
2018-09-19T05:49:54.714Z,18.65
2018-09-19T05:52:28.531Z,13.30
2018-09-19T05:55:01.092Z,26.75
2018-09-19T05:57:31.287Z,18.98
2018-09-19T06:00:01.422Z,24.10
2018-09-19T06:02:31.638Z,19.52
2018-09-19T06:05:03.438Z,25.70
2018-09-19T06:07:33.475Z,27.08
2018-09-19T06:10:02.169Z,21.10
2018-09-19T06:12:30.864Z,20.92
2018-09-19T06:15:02.368Z,21.90
2018-09-19T06:17:31.162Z,23.20
2018-09-19T06:19:59.875Z,23.10
2018-09-19T06:22:30.014Z,22.77
2018-09-19T06:24:58.799Z,18.45
2018-09-19T06:27:29.180Z,20.77
2018-09-19T06:29:58.334Z,13.80
2018-09-19T06:32:27.065Z,20.58
2018-09-19T06:34:55.789Z,21.98
2018-09-19T06:37:26.020Z,18.48
2018-09-19T06:39:56.123Z,20.90
2018-09-19T06:42:24.726Z,20.77
2018-09-19T06:44:53.309Z,18.35
2018-09-19T06:47:23.618Z,23.98
2018-09-19T06:49:53.779Z,21.23
2018-09-19T06:52:22.643Z,21.05
2018-09-19T06:54:51.247Z,18.67
2018-09-19T06:57:22.034Z,17.00
2018-09-19T06:59:50.614Z,20.60
2018-09-19T07:02:19.189Z,16.02
2018-09-19T07:04:49.371Z,17.35
2018-09-19T07:07:19.479Z,18.15
2018-09-19T07:09:50.070Z,19.23
2018-09-19T07:12:20.197Z,18.98
2018-09-19T07:14:51.416Z,15.57
2018-09-19T07:17:23.088Z,15.25
2018-09-19T07:19:51.764Z,20.62
2018-09-19T07:22:20.476Z,15.48
2018-09-19T07:24:50.506Z,19.23
2018-09-19T07:27:24.081Z,16.12
2018-09-19T07:29:55.713Z,17.90
2018-09-19T07:32:24.408Z,16.20
2018-09-19T07:34:53.012Z,11.68
2018-09-19T07:37:23.416Z,12.85
2018-09-19T07:39:53.501Z,18.12
2018-09-19T07:42:21.996Z,15.98
2018-09-19T07:44:53.813Z,15.48
2018-09-19T07:47:25.369Z,16.98
2018-09-19T07:49:53.957Z,15.77
2018-09-19T07:52:27.853Z,11.55
2018-09-19T07:54:56.452Z,13.52
2018-09-19T07:57:25.675Z,15.82
2018-09-19T07:59:54.283Z,12.05
2018-09-19T08:02:24.503Z,17.30
2018-09-19T08:04:56.745Z,16.48
2018-09-19T08:07:28.310Z,12.32
2018-09-19T08:09:59.708Z,14.35
2018-09-19T08:12:28.274Z,17.40
2018-09-19T08:14:58.477Z,13.75
2018-09-19T08:17:28.643Z,13.60
2018-09-19T08:20:00.355Z,15.77
2018-09-19T08:22:30.874Z,15.82
2018-09-19T08:25:01.602Z,19.08
2018-09-19T08:27:31.835Z,16.27
2018-09-19T08:30:04.254Z,20.55
2018-09-19T08:32:36.085Z,18.42
2018-09-19T08:35:07.672Z,16.20
2018-09-19T08:37:39.527Z,11.77
2018-09-19T08:40:11.390Z,13.57
2018-09-19T08:42:39.997Z,14.73
2018-09-19T08:45:10.195Z,15.18
2018-09-19T08:47:41.830Z,15.20
2018-09-19T08:50:12.155Z,14.25
2018-09-19T08:52:40.918Z,14.85
2018-09-19T08:55:09.568Z,15.10
2018-09-19T08:57:41.217Z,14.20
2018-09-19T09:00:13.935Z,19.70
2018-09-19T09:02:44.285Z,13.15
2018-09-19T09:05:14.442Z,14.10
2018-09-19T09:07:43.190Z,12.93
2018-09-19T09:10:13.170Z,12.37
2018-09-19T09:12:43.602Z,14.80
2018-09-19T09:15:15.179Z,14.63
2018-09-19T09:17:43.963Z,15.93
2018-09-19T09:20:13.994Z,16.00
2018-09-19T09:22:45.955Z,18.33
2018-09-19T09:25:17.687Z,15.80
2018-09-19T09:27:46.505Z,14.52
2018-09-19T09:30:16.772Z,12.95
2018-09-19T09:32:47.024Z,21.77
2018-09-19T09:35:18.947Z,16.62
2018-09-19T09:37:51.063Z,15.90
2018-09-19T09:40:22.749Z,16.30
2018-09-19T09:42:54.566Z,12.48
2018-09-19T09:45:26.254Z,17.20
2018-09-19T09:47:54.960Z,16.58
2018-09-19T09:50:25.739Z,15.10
2018-09-19T09:52:57.535Z,19.58
2018-09-19T09:55:29.192Z,16.30
2018-09-19T09:57:59.333Z,10.38
2018-09-19T10:00:44.347Z,11.60
2018-09-19T10:03:14.391Z,16.58
2018-09-19T10:05:44.460Z,15.02
2018-09-19T10:08:16.121Z,17.80
2018-09-19T10:10:44.850Z,19.65
2018-09-19T10:13:13.435Z,15.65
2018-09-19T10:15:42.014Z,14.18
2018-09-19T10:18:13.760Z,12.27
2018-09-19T10:20:44.040Z,12.35
2018-09-19T10:23:15.737Z,16.10
2018-09-19T10:25:45.967Z,13.90
2018-09-19T10:28:15.117Z,11.40
2018-09-19T10:30:47.004Z,13.77
2018-09-19T10:33:17.173Z,15.95
2018-09-19T10:35:47.875Z,12.93
2018-09-19T10:38:19.215Z,11.57
2018-09-19T10:40:49.439Z,10.10
2018-09-19T10:43:19.485Z,17.05
2018-09-19T10:45:47.292Z,11.63
2018-09-19T10:48:17.415Z,11.07
2018-09-19T10:50:48.219Z,13.50
2018-09-19T10:53:16.777Z,12.25
2018-09-19T10:55:45.379Z,12.70
2018-09-19T10:58:15.701Z,14.27
2018-09-19T11:00:47.465Z,13.40
2018-09-19T11:03:17.618Z,5.90
2018-09-19T11:05:47.774Z,13.35
2018-09-19T11:08:17.195Z,14.82
2018-09-19T11:10:47.487Z,10.80
2018-09-19T11:13:17.635Z,17.15
2018-09-19T11:15:47.979Z,14.60
2018-09-19T11:18:19.701Z,14.60
2018-09-19T11:20:48.376Z,16.05
2018-09-19T11:23:17.508Z,13.95
2018-09-19T11:25:47.807Z,16.62
2018-09-19T11:28:16.402Z,9.90
2018-09-19T11:30:46.705Z,12.90
2018-09-19T11:33:16.741Z,13.18
2018-09-19T11:35:48.296Z,16.33
2018-09-19T11:38:18.488Z,10.50
2018-09-19T11:40:48.743Z,11.55
2018-09-19T11:43:17.339Z,14.80
2018-09-19T11:45:47.641Z,15.40
2018-09-19T11:48:16.416Z,10.23
2018-09-19T11:50:46.739Z,12.23
2018-09-19T11:53:30.816Z,11.52
2018-09-19T11:56:01.773Z,15.65
2018-09-19T11:58:32.659Z,16.17
2018-09-19T12:01:02.883Z,17.60
2018-09-19T12:03:33.111Z,16.05
2018-09-19T12:06:01.698Z,10.98
2018-09-19T12:08:31.930Z,13.07
2018-09-19T12:11:00.529Z,10.95
2018-09-19T12:13:30.750Z,12.50
2018-09-19T12:16:01.966Z,15.50
2018-09-19T12:18:32.255Z,12.40
2018-09-19T12:21:04.080Z,13.88
2018-09-19T12:23:34.180Z,13.25
2018-09-19T12:26:05.719Z,14.98
2018-09-19T12:28:37.198Z,12.37
2018-09-19T12:31:05.817Z,14.65
2018-09-19T12:33:35.891Z,12.98
2018-09-19T12:36:06.368Z,15.20
2018-09-19T12:38:37.183Z,13.00
2018-09-19T12:41:07.273Z,12.40
2018-09-19T12:43:37.903Z,10.98
2018-09-19T12:46:06.691Z,12.77
2018-09-19T12:48:37.302Z,7.87
2018-09-19T12:51:08.785Z,13.05
2018-09-19T12:53:39.187Z,9.38
2018-09-19T12:56:09.219Z,16.90
2018-09-19T12:58:39.627Z,10.95
2018-09-19T13:01:09.957Z,13.68
2018-09-19T13:03:38.548Z,13.18
2018-09-19T13:06:08.776Z,12.35
2018-09-19T13:08:37.520Z,18.98
2018-09-19T13:11:07.530Z,31.10
2018-09-19T13:13:36.822Z,15.15
2018-09-19T13:16:08.073Z,17.08
2018-09-19T13:18:36.585Z,20.17
2018-09-19T13:21:07.207Z,17.92
2018-09-19T13:23:37.569Z,21.25
2018-09-19T13:26:06.285Z,17.40
2018-09-19T13:28:36.468Z,21.48
2018-09-19T13:31:06.828Z,13.20
2018-09-19T13:33:37.362Z,14.80
2018-09-19T13:36:07.530Z,21.30
2018-09-19T13:38:37.804Z,17.85
2018-09-19T13:41:07.833Z,13.93
2018-09-19T13:43:38.565Z,11.65
2018-09-19T13:46:08.724Z,9.68
2018-09-19T13:48:39.203Z,13.88
2018-09-19T13:51:26.984Z,9.45
2018-09-19T13:53:57.111Z,10.10
2018-09-19T13:56:27.153Z,11.98
2018-09-19T13:58:57.290Z,9.73
2018-09-19T14:01:28.880Z,10.75
2018-09-19T14:03:57.517Z,11.10
2018-09-19T14:06:27.790Z,8.60
2018-09-19T14:08:57.833Z,14.35
2018-09-19T14:11:28.164Z,9.02
2018-09-19T14:13:56.773Z,12.25
2018-09-19T14:16:28.283Z,10.40
2018-09-19T14:18:56.896Z,10.07
2018-09-19T14:21:27.648Z,10.23
2018-09-19T14:23:57.938Z,7.80
2018-09-19T14:26:29.582Z,9.65
2018-09-19T14:28:58.496Z,11.27
2018-09-19T14:31:26.269Z,12.57
2018-09-19T14:33:57.919Z,10.65
2018-09-19T14:36:28.305Z,10.32
2018-09-19T14:38:58.334Z,10.05
2018-09-19T14:41:28.439Z,11.52
2018-09-19T14:44:00.337Z,7.40
2018-09-19T14:46:30.553Z,11.75
2018-09-19T14:49:01.371Z,8.27
2018-09-19T14:51:32.083Z,8.57
2018-09-19T14:54:02.359Z,9.45
2018-09-19T14:56:32.436Z,13.73
2018-09-19T14:59:01.223Z,10.30
2018-09-19T15:01:31.559Z,14.48
2018-09-19T15:04:01.829Z,5.40
2018-09-19T15:06:30.599Z,10.20
2018-09-19T15:08:59.169Z,8.25
2018-09-19T15:11:27.762Z,8.02
2018-09-19T15:14:01.686Z,11.90
2018-09-19T15:16:30.157Z,9.50
2018-09-19T15:19:01.725Z,8.60
2018-09-19T15:21:32.438Z,12.35
2018-09-19T15:24:01.033Z,11.88
2018-09-19T15:26:29.600Z,13.80
2018-09-19T15:28:58.175Z,12.73
2018-09-19T15:31:28.895Z,8.88
2018-09-19T15:33:57.394Z,11.27
2018-09-19T15:36:27.680Z,10.07
2018-09-19T15:38:55.408Z,11.20
2018-09-19T15:41:27.212Z,9.90
2018-09-19T15:43:57.444Z,13.57
2018-09-19T15:46:27.625Z,9.68
2018-09-19T15:48:57.819Z,10.05
2018-09-19T15:51:28.268Z,10.35
2018-09-19T15:53:59.406Z,12.80
2018-09-19T15:56:31.114Z,11.90
2018-09-19T15:59:01.228Z,9.57
2018-09-19T16:01:31.448Z,7.70
2018-09-19T16:04:00.069Z,11.12
2018-09-19T16:06:30.702Z,8.93
2018-09-19T16:09:00.919Z,9.68
2018-09-19T16:11:32.510Z,8.77
2018-09-19T16:14:04.181Z,8.40
2018-09-19T16:16:32.925Z,7.25
2018-09-19T16:19:01.472Z,7.75
2018-09-19T16:21:30.057Z,11.27
2018-09-19T16:24:00.101Z,11.93
2018-09-19T16:26:30.145Z,6.87
2018-09-19T16:29:01.837Z,10.85
2018-09-19T16:31:32.018Z,7.45
2018-09-19T16:34:02.337Z,6.32
2018-09-19T16:36:31.110Z,8.77
2018-09-19T16:39:01.321Z,7.53
2018-09-19T16:41:29.925Z,11.32
2018-09-19T16:43:58.559Z,8.52
2018-09-19T16:46:28.679Z,7.32
2018-09-19T16:49:00.383Z,10.90
2018-09-19T16:51:29.631Z,9.88
2018-09-19T16:53:58.140Z,12.25
2018-09-19T16:56:26.713Z,7.20
2018-09-19T16:58:56.975Z,10.25
2018-09-19T17:01:28.594Z,9.55
2018-09-19T17:03:59.047Z,10.90
2018-09-19T17:06:27.730Z,6.70
2018-09-19T17:08:59.504Z,7.90
2018-09-19T17:11:31.135Z,10.40
2018-09-19T17:14:01.457Z,8.65
2018-09-19T17:16:29.469Z,11.05
2018-09-19T17:18:58.216Z,7.40
2018-09-19T17:21:28.248Z,10.85
2018-09-19T17:23:59.895Z,9.73
2018-09-19T17:26:30.017Z,10.13
2018-09-19T17:29:01.625Z,13.57
2018-09-19T17:31:30.268Z,11.30
2018-09-19T17:34:00.287Z,15.48
2018-09-19T17:36:28.894Z,11.93
2018-09-19T17:38:57.638Z,8.48
2018-09-19T17:41:28.056Z,8.52
2018-09-19T17:43:58.281Z,7.60
2018-09-19T17:46:29.967Z,9.07
2018-09-19T17:49:00.328Z,10.02
2018-09-19T17:51:30.425Z,8.63
2018-09-19T17:53:59.132Z,9.38
2018-09-19T17:56:27.788Z,11.15
2018-09-19T17:58:57.959Z,11.55
2018-09-19T18:01:28.167Z,10.82
2018-09-19T18:03:56.792Z,12.30
2018-09-19T18:06:28.442Z,8.48
2018-09-19T18:08:58.646Z,9.88
2018-09-19T18:11:27.764Z,13.25
2018-09-19T18:13:58.388Z,13.02
2018-09-19T18:16:26.945Z,13.40
2018-09-19T18:18:57.071Z,12.63
2018-09-19T18:21:25.654Z,10.98
2018-09-19T18:23:57.288Z,15.15
2018-09-19T18:26:27.413Z,8.23
2018-09-19T18:28:56.074Z,12.32
2018-09-19T18:31:26.168Z,12.10
2018-09-19T18:33:54.804Z,12.48
2018-09-19T18:36:24.077Z,9.00
2018-09-19T18:38:54.371Z,11.18
2018-09-19T18:41:22.939Z,10.80
2018-09-19T18:43:53.169Z,10.93
2018-09-19T18:46:23.285Z,16.02
2018-09-19T18:48:53.342Z,14.52
2018-09-19T18:51:25.116Z,13.30
2018-09-19T18:53:53.705Z,11.27
2018-09-19T18:56:22.325Z,9.93
2018-09-19T18:58:51.537Z,14.38
2018-09-19T19:01:21.614Z,12.63
2018-09-19T19:03:50.318Z,13.82
2018-09-19T19:06:18.929Z,12.20
2018-09-19T19:08:47.514Z,12.18
2018-09-19T19:11:15.972Z,13.45
2018-09-19T19:13:45.273Z,14.13
2018-09-19T19:16:15.380Z,6.85
2018-09-19T19:18:45.570Z,9.07
2018-09-19T19:21:15.654Z,11.57
2018-09-19T19:23:44.494Z,12.90
2018-09-19T19:26:14.600Z,13.93
2018-09-19T19:28:44.873Z,12.90
2018-09-19T19:31:13.625Z,10.90
2018-09-19T19:33:42.751Z,12.00
2018-09-19T19:36:12.862Z,14.85
2018-09-19T19:38:42.967Z,11.05
2018-09-19T19:41:13.131Z,11.05
2018-09-19T19:43:42.313Z,12.48
2018-09-19T19:46:12.564Z,8.48
2018-09-19T19:48:42.604Z,8.65
2018-09-19T19:51:12.962Z,10.73
2018-09-19T19:53:43.198Z,9.32
2018-09-19T19:56:13.392Z,11.27
2018-09-19T19:58:42.894Z,11.63
2018-09-19T20:01:13.220Z,9.45
2018-09-19T20:03:43.356Z,9.63
2018-09-19T20:06:13.785Z,11.15
2018-09-19T20:08:45.374Z,11.77
2018-09-19T20:11:15.468Z,13.85
2018-09-19T20:13:44.256Z,13.27
2018-09-19T20:16:15.902Z,12.60
2018-09-19T20:18:44.570Z,12.32
2018-09-19T20:21:13.181Z,10.88
2018-09-19T20:23:42.700Z,15.77
2018-09-19T20:26:14.797Z,17.02
2018-09-19T20:28:43.941Z,12.35
2018-09-19T20:31:14.153Z,9.93
2018-09-19T20:33:44.252Z,12.15
2018-09-19T20:36:14.263Z,12.48
2018-09-19T20:38:44.385Z,16.58
2018-09-19T20:41:13.104Z,14.95
2018-09-19T20:43:44.684Z,13.57
2018-09-19T20:46:14.795Z,12.50
2018-09-19T20:48:46.334Z,12.35
2018-09-19T20:51:18.000Z,9.90
2018-09-19T20:53:47.936Z,16.45
2018-09-19T20:56:18.069Z,15.18
2018-09-19T20:58:48.211Z,10.70
2018-09-19T21:01:18.421Z,12.37
2018-09-19T21:03:49.939Z,10.15
2018-09-19T21:06:19.980Z,13.30
2018-09-19T21:08:50.058Z,17.45
2018-09-19T21:11:20.089Z,12.75
2018-09-19T21:13:50.333Z,14.40
2018-09-19T21:16:19.037Z,12.88
2018-09-19T21:18:49.381Z,20.15
2018-09-19T21:21:19.547Z,10.80
2018-09-19T21:23:49.614Z,12.02
2018-09-19T21:26:21.185Z,16.90
2018-09-19T21:28:51.499Z,12.15
2018-09-19T21:31:21.695Z,19.08
2018-09-19T21:33:53.571Z,16.90
2018-09-19T21:36:23.735Z,11.55
2018-09-19T21:38:53.807Z,10.90
2018-09-19T21:41:22.452Z,9.55
2018-09-19T21:43:52.541Z,13.07
2018-09-19T21:46:21.576Z,15.45
2018-09-19T21:48:51.726Z,16.85
2018-09-19T21:51:21.909Z,12.05
2018-09-19T21:53:51.995Z,12.95
2018-09-19T21:56:20.675Z,20.10
2018-09-19T21:58:52.729Z,16.55
2018-09-19T22:01:39.352Z,12.90
2018-09-19T22:04:08.071Z,10.02
2018-09-19T22:06:36.715Z,13.77
2018-09-19T22:09:08.605Z,11.07
2018-09-19T22:11:41.253Z,13.10
2018-09-19T22:14:12.412Z,16.00
2018-09-19T22:16:42.630Z,13.52
2018-09-19T22:19:11.395Z,12.07
2018-09-19T22:21:41.538Z,15.70
2018-09-19T22:24:13.377Z,13.02
2018-09-19T22:26:43.546Z,12.37
2018-09-19T22:29:13.795Z,14.63
2018-09-19T22:31:44.340Z,14.73
2018-09-19T22:34:14.511Z,14.85
2018-09-19T22:36:46.390Z,10.98
2018-09-19T22:39:15.542Z,11.20
2018-09-19T22:41:45.807Z,14.20
2018-09-19T22:44:15.877Z,16.65
2018-09-19T22:46:44.364Z,14.55
2018-09-19T22:49:13.080Z,11.95
2018-09-19T22:51:43.145Z,11.73
2018-09-19T22:54:11.204Z,14.02
2018-09-19T22:56:41.596Z,13.55
2018-09-19T22:59:11.776Z,15.20
2018-09-19T23:01:42.000Z,15.32
2018-09-19T23:04:10.677Z,14.18
2018-09-19T23:06:40.778Z,11.75
2018-09-19T23:09:12.595Z,12.85
2018-09-19T23:11:42.648Z,12.85
2018-09-19T23:14:12.889Z,13.18
2018-09-19T23:16:41.538Z,13.25
2018-09-19T23:19:11.614Z,14.43
2018-09-19T23:21:41.755Z,13.13
2018-09-19T23:24:11.814Z,17.00
2018-09-19T23:26:41.241Z,14.05
2018-09-19T23:29:09.507Z,14.77
2018-09-19T23:31:39.655Z,16.73
2018-09-19T23:34:09.926Z,12.37
2018-09-19T23:36:40.104Z,11.60
2018-09-19T23:39:11.949Z,19.80
2018-09-19T23:41:42.112Z,16.52
2018-09-19T23:44:10.344Z,14.05
2018-09-19T23:46:38.988Z,11.90
2018-09-19T23:49:10.366Z,13.40
2018-09-19T23:51:41.944Z,11.30
2018-09-19T23:54:13.435Z,16.25
2018-09-19T23:56:42.676Z,14.27
2018-09-19T23:59:11.490Z,13.13
